Terminal Aerodrome Forecast
Issued by NWS

Home | Current Version | Previous Version | Text Only | Print | Product List | Glossary On
Versions: 1 2 3 4 5 6 7 8 9 10 11 12 13 14 15 16
139
FTUS42 KMHX 211120
TAFISO
TAF
KISO 211120Z 2112/2212 00000KT 1SM BR BKN003
     FM211300 10005KT P6SM SCT050
     FM220800 00000KT 2SM BR SKC
      AMD NOT SKED=

USA.gov is the U.S. government's official web portal to all federal, state and local government web resources and services.